Parker Ford, Pennsylvania
Current Conditions -  °F | °C
As of 11:54 PM on Wednesday 26 Nov 2014 (Local Time) from KPTW Reporting Station
Overcast Overcast  
Wind Chill: 28°   Ceiling: 9500
Heat Index: 33°   Visibility: 10mi
Dew Point: 31°   Wind: 6mph
Humidity: 92%   Direction: 290°WNW
Pressure: 29.93"   Gusts: NA
Location:  40.2°N, 75.58°W
Report Text: KPTW 270454Z AUTO 29005KT 10SM OVC095 01/M01 A2993 RMK AO2 SLP134 T00061006 400670000
Loading
Personal Weather Stations






























Interactive Weather Map New forecast layout! Learn more

10-Day Weather Forecast

Advertisements
Track Severe Weather on mobile